sensor_id;sensor_type;location;lat;lon;timestamp;pressure;altitude;pressure_sealevel;temperature;humidity
20622;BME280;10470;42.670;23.354;2023-03-03T00:00:38;94860.50;;;5.42;100.00
20622;BME280;10470;42.670;23.354;2023-03-03T00:03:06;94863.97;;;5.42;100.00
20622;BME280;10470;42.670;23.354;2023-03-03T00:05:32;94866.78;;;5.35;100.00
20622;BME280;10470;42.670;23.354;2023-03-03T00:07:58;94854.63;;;5.23;100.00
20622;BME280;10470;42.670;23.354;2023-03-03T00:10:24;94857.75;;;5.45;100.00
20622;BME280;10470;42.670;23.354;2023-03-03T00:12:50;94850.03;;;5.44;100.00
20622;BME280;10470;42.670;23.354;2023-03-03T00:15:21;94855.56;;;5.37;100.00
20622;BME280;10470;42.670;23.354;2023-03-03T00:17:48;94854.34;;;5.41;100.00
20622;BME280;10470;42.670;23.354;2023-03-03T00:20:47;94851.88;;;5.51;100.00
20622;BME280;10470;42.670;23.354;2023-03-03T00:23:37;94855.44;;;5.44;100.00
20622;BME280;10470;42.670;23.354;2023-03-03T00:26:21;94858.34;;;5.33;100.00
20622;BME280;10470;42.670;23.354;2023-03-03T00:28:51;94846.97;;;5.42;100.00
20622;BME280;10470;42.670;23.354;2023-03-03T00:31:28;94849.84;;;5.08;100.00
20622;BME280;10470;42.670;23.354;2023-03-03T00:33:56;94847.59;;;5.30;100.00
20622;BME280;10470;42.670;23.354;2023-03-03T00:36:36;94838.66;;;5.09;100.00
20622;BME280;10470;42.670;23.354;2023-03-03T00:39:36;94831.78;;;5.04;100.00
20622;BME280;10470;42.670;23.354;2023-03-03T00:42:11;94832.50;;;5.09;100.00
20622;BME280;10470;42.670;23.354;2023-03-03T00:47:22;94818.47;;;5.17;100.00
20622;BME280;10470;42.670;23.354;2023-03-03T00:49:52;94815.41;;;5.15;100.00
20622;BME280;10470;42.670;23.354;2023-03-03T00:52:18;94812.25;;;5.20;100.00
20622;BME280;10470;42.670;23.354;2023-03-03T00:54:44;94810.91;;;5.32;100.00
20622;BME280;10470;42.670;23.354;2023-03-03T00:57:10;94818.53;;;5.14;100.00
20622;BME280;10470;42.670;23.354;2023-03-03T00:59:37;94802.25;;;5.17;100.00
20622;BME280;10470;42.670;23.354;2023-03-03T01:02:03;94792.28;;;5.14;100.00
20622;BME280;10470;42.670;23.354;2023-03-03T01:04:28;94784.22;;;5.11;100.00
20622;BME280;10470;42.670;23.354;2023-03-03T01:06:53;94796.75;;;5.24;100.00
20622;BME280;10470;42.670;23.354;2023-03-03T01:09:19;94791.38;;;5.21;100.00
20622;BME280;10470;42.670;23.354;2023-03-03T01:11:44;94794.69;;;5.32;100.00
20622;BME280;10470;42.670;23.354;2023-03-03T01:14:10;94794.28;;;5.10;100.00
20622;BME280;10470;42.670;23.354;2023-03-03T01:16:35;94782.06;;;5.25;100.00
20622;BME280;10470;42.670;23.354;2023-03-03T01:19:01;94790.63;;;5.20;100.00
20622;BME280;10470;42.670;23.354;2023-03-03T01:21:26;94789.34;;;5.05;100.00
20622;BME280;10470;42.670;23.354;2023-03-03T01:23:52;94789.69;;;5.07;100.00
20622;BME280;10470;42.670;23.354;2023-03-03T01:26:17;94779.44;;;4.98;100.00
20622;BME280;10470;42.670;23.354;2023-03-03T01:28:43;94792.16;;;4.98;100.00
20622;BME280;10470;42.670;23.354;2023-03-03T01:31:08;94790.91;;;5.02;100.00
20622;BME280;10470;42.670;23.354;2023-03-03T01:33:35;94784.28;;;5.07;100.00
20622;BME280;10470;42.670;23.354;2023-03-03T01:36:01;94784.59;;;5.13;100.00
20622;BME280;10470;42.670;23.354;2023-03-03T01:38:27;94773.75;;;5.16;100.00
20622;BME280;10470;42.670;23.354;2023-03-03T01:40:58;94776.84;;;5.15;100.00
20622;BME280;10470;42.670;23.354;2023-03-03T01:43:28;94778.53;;;5.05;100.00
20622;BME280;10470;42.670;23.354;2023-03-03T01:48:33;94774.44;;;5.20;100.00
20622;BME280;10470;42.670;23.354;2023-03-03T01:51:18;94782.16;;;5.18;100.00
20622;BME280;10470;42.670;23.354;2023-03-03T01:53:49;94769.03;;;4.97;100.00
20622;BME280;10470;42.670;23.354;2023-03-03T01:56:16;94775.09;;;5.04;100.00
20622;BME280;10470;42.670;23.354;2023-03-03T01:58:49;94775.00;;;5.08;100.00
20622;BME280;10470;42.670;23.354;2023-03-03T02:01:23;94772.00;;;5.26;100.00
20622;BME280;10470;42.670;23.354;2023-03-03T02:03:49;94769.03;;;5.20;100.00
20622;BME280;10470;42.670;23.354;2023-03-03T02:06:18;94768.38;;;4.89;100.00
20622;BME280;10470;42.670;23.354;2023-03-03T02:11:20;94771.47;;;4.88;100.00
20622;BME280;10470;42.670;23.354;2023-03-03T02:13:46;94768.91;;;4.80;100.00
20622;BME280;10470;42.670;23.354;2023-03-03T02:16:12;94775.47;;;5.03;100.00
20622;BME280;10470;42.670;23.354;2023-03-03T02:18:37;94771.38;;;4.95;100.00
20622;BME280;10470;42.670;23.354;2023-03-03T02:21:10;94774.72;;;5.02;100.00
20622;BME280;10470;42.670;23.354;2023-03-03T02:26:28;94767.81;;;5.01;100.00
20622;BME280;10470;42.670;23.354;2023-03-03T02:28:54;94777.50;;;4.99;100.00
20622;BME280;10470;42.670;23.354;2023-03-03T02:31:23;94778.78;;;4.91;100.00
20622;BME280;10470;42.670;23.354;2023-03-03T02:33:51;94771.00;;;4.93;100.00
20622;BME280;10470;42.670;23.354;2023-03-03T02:36:23;94766.16;;;4.84;100.00
20622;BME280;10470;42.670;23.354;2023-03-03T02:39:21;94771.00;;;4.93;100.00
20622;BME280;10470;42.670;23.354;2023-03-03T02:44:20;94773.91;;;5.06;100.00
20622;BME280;10470;42.670;23.354;2023-03-03T02:46:47;94774.59;;;5.10;100.00
20622;BME280;10470;42.670;23.354;2023-03-03T02:49:16;94771.50;;;5.11;100.00
20622;BME280;10470;42.670;23.354;2023-03-03T02:51:42;94770.41;;;5.29;100.00
20622;BME280;10470;42.670;23.354;2023-03-03T02:54:10;94766.72;;;4.95;100.00
20622;BME280;10470;42.670;23.354;2023-03-03T02:56:36;94769.50;;;5.15;100.00
20622;BME280;10470;42.670;23.354;2023-03-03T02:59:03;94763.81;;;5.10;100.00
20622;BME280;10470;42.670;23.354;2023-03-03T03:01:29;94764.06;;;5.19;100.00
20622;BME280;10470;42.670;23.354;2023-03-03T03:03:57;94769.22;;;5.10;100.00
20622;BME280;10470;42.670;23.354;2023-03-03T03:06:22;94764.28;;;5.04;100.00
20622;BME280;10470;42.670;23.354;2023-03-03T03:08:48;94763.63;;;5.20;100.00
20622;BME280;10470;42.670;23.354;2023-03-03T03:11:13;94758.81;;;5.08;100.00
20622;BME280;10470;42.670;23.354;2023-03-03T03:13:39;94756.19;;;5.04;100.00
20622;BME280;10470;42.670;23.354;2023-03-03T03:16:04;94755.34;;;5.08;100.00
20622;BME280;10470;42.670;23.354;2023-03-03T03:18:30;94760.00;;;5.07;100.00
20622;BME280;10470;42.670;23.354;2023-03-03T03:20:55;94757.88;;;5.18;100.00
20622;BME280;10470;42.670;23.354;2023-03-03T03:23:21;94758.16;;;5.00;100.00
20622;BME280;10470;42.670;23.354;2023-03-03T03:25:47;94760.00;;;5.07;100.00
20622;BME280;10470;42.670;23.354;2023-03-03T03:28:14;94765.22;;;5.18;100.00
20622;BME280;10470;42.670;23.354;2023-03-03T03:30:40;94748.84;;;4.81;100.00
20622;BME280;10470;42.670;23.354;2023-03-03T03:33:06;94756.00;;;5.15;100.00
20622;BME280;10470;42.670;23.354;2023-03-03T03:35:33;94743.44;;;5.05;100.00
20622;BME280;10470;42.670;23.354;2023-03-03T03:37:59;94746.41;;;5.11;100.00
20622;BME280;10470;42.670;23.354;2023-03-03T03:40:25;94752.81;;;5.20;100.00
20622;BME280;10470;42.670;23.354;2023-03-03T03:42:54;94746.03;;;5.12;100.00
20622;BME280;10470;42.670;23.354;2023-03-03T03:45:20;94741.97;;;5.00;100.00
20622;BME280;10470;42.670;23.354;2023-03-03T03:47:46;94741.28;;;4.96;100.00
20622;BME280;10470;42.670;23.354;2023-03-03T03:50:12;94733.47;;;5.02;100.00
20622;BME280;10470;42.670;23.354;2023-03-03T03:52:37;94727.72;;;5.00;100.00
20622;BME280;10470;42.670;23.354;2023-03-03T03:55:04;94736.09;;;5.06;100.00
20622;BME280;10470;42.670;23.354;2023-03-03T03:57:30;94736.28;;;4.95;100.00
20622;BME280;10470;42.670;23.354;2023-03-03T03:59:55;94731.94;;;5.01;100.00
20622;BME280;10470;42.670;23.354;2023-03-03T04:02:20;94736.25;;;4.98;100.00
20622;BME280;10470;42.670;23.354;2023-03-03T04:04:46;94716.91;;;5.00;100.00
20622;BME280;10470;42.670;23.354;2023-03-03T04:07:11;94720.50;;;4.93;100.00
20622;BME280;10470;42.670;23.354;2023-03-03T04:09:37;94721.56;;;4.99;100.00
20622;BME280;10470;42.670;23.354;2023-03-03T04:12:03;94718.25;;;5.12;100.00
20622;BME280;10470;42.670;23.354;2023-03-03T04:14:28;94722.19;;;5.07;100.00
20622;BME280;10470;42.670;23.354;2023-03-03T04:16:54;94718.44;;;5.01;100.00
20622;BME280;10470;42.670;23.354;2023-03-03T04:19:20;94723.38;;;5.06;100.00
20622;BME280;10470;42.670;23.354;2023-03-03T04:21:45;94710.00;;;4.99;100.00
20622;BME280;10470;42.670;23.354;2023-03-03T04:24:11;94716.03;;;5.07;100.00
20622;BME280;10470;42.670;23.354;2023-03-03T04:26:36;94710.81;;;4.96;100.00
20622;BME280;10470;42.670;23.354;2023-03-03T04:29:02;94712.50;;;5.10;100.00
20622;BME280;10470;42.670;23.354;2023-03-03T04:31:27;94706.06;;;5.03;100.00
20622;BME280;10470;42.670;23.354;2023-03-03T04:33:53;94719.25;;;4.98;100.00
20622;BME280;10470;42.670;23.354;2023-03-03T04:36:19;94713.09;;;4.97;100.00
20622;BME280;10470;42.670;23.354;2023-03-03T04:38:45;94710.19;;;5.08;100.00
20622;BME280;10470;42.670;23.354;2023-03-03T04:41:11;94700.84;;;4.93;100.00
20622;BME280;10470;42.670;23.354;2023-03-03T04:43:36;94707.34;;;4.95;100.00
20622;BME280;10470;42.670;23.354;2023-03-03T04:46:02;94706.88;;;5.00;100.00
20622;BME280;10470;42.670;23.354;2023-03-03T04:48:32;94708.28;;;5.09;100.00
20622;BME280;10470;42.670;23.354;2023-03-03T04:50:58;94710.63;;;5.07;100.00
20622;BME280;10470;42.670;23.354;2023-03-03T04:53:23;94704.03;;;5.08;100.00
20622;BME280;10470;42.670;23.354;2023-03-03T04:55:52;94705.91;;;5.11;100.00
20622;BME280;10470;42.670;23.354;2023-03-03T04:58:19;94706.69;;;5.11;100.00
20622;BME280;10470;42.670;23.354;2023-03-03T05:00:55;94718.44;;;5.01;100.00
20622;BME280;10470;42.670;23.354;2023-03-03T05:03:21;94714.31;;;5.16;100.00
20622;BME280;10470;42.670;23.354;2023-03-03T05:05:47;94713.25;;;5.10;100.00
20622;BME280;10470;42.670;23.354;2023-03-03T05:08:13;94716.50;;;5.01;100.00
20622;BME280;10470;42.670;23.354;2023-03-03T05:10:38;94719.09;;;5.09;100.00
20622;BME280;10470;42.670;23.354;2023-03-03T05:13:04;94718.19;;;5.15;100.00
20622;BME280;10470;42.670;23.354;2023-03-03T05:15:30;94717.50;;;4.88;100.00
20622;BME280;10470;42.670;23.354;2023-03-03T05:17:56;94721.91;;;5.01;100.00
20622;BME280;10470;42.670;23.354;2023-03-03T05:20:22;94721.28;;;4.94;100.00
20622;BME280;10470;42.670;23.354;2023-03-03T05:22:47;94727.75;;;5.20;100.00
20622;BME280;10470;42.670;23.354;2023-03-03T05:25:13;94736.69;;;5.17;100.00
20622;BME280;10470;42.670;23.354;2023-03-03T05:27:38;94728.38;;;5.28;100.00
20622;BME280;10470;42.670;23.354;2023-03-03T05:30:04;94727.13;;;5.12;100.00
20622;BME280;10470;42.670;23.354;2023-03-03T05:32:31;94726.09;;;5.26;100.00
20622;BME280;10470;42.670;23.354;2023-03-03T05:34:57;94724.28;;;5.19;100.00
20622;BME280;10470;42.670;23.354;2023-03-03T05:37:22;94723.06;;;5.24;100.00
20622;BME280;10470;42.670;23.354;2023-03-03T05:39:48;94729.53;;;5.26;100.00
20622;BME280;10470;42.670;23.354;2023-03-03T05:42:14;94716.00;;;5.30;100.00
20622;BME280;10470;42.670;23.354;2023-03-03T05:44:39;94732.97;;;5.51;100.00
20622;BME280;10470;42.670;23.354;2023-03-03T05:47:05;94732.75;;;5.21;100.00
20622;BME280;10470;42.670;23.354;2023-03-03T05:49:30;94729.06;;;5.32;100.00
20622;BME280;10470;42.670;23.354;2023-03-03T05:51:56;94737.53;;;5.34;100.00
20622;BME280;10470;42.670;23.354;2023-03-03T05:54:23;94739.63;;;5.46;100.00
20622;BME280;10470;42.670;23.354;2023-03-03T05:56:49;94734.09;;;5.10;100.00
20622;BME280;10470;42.670;23.354;2023-03-03T05:59:14;94733.34;;;5.29;100.00
20622;BME280;10470;42.670;23.354;2023-03-03T06:01:40;94732.69;;;5.45;100.00
20622;BME280;10470;42.670;23.354;2023-03-03T06:04:05;94738.97;;;5.18;100.00
20622;BME280;10470;42.670;23.354;2023-03-03T06:06:31;94738.63;;;5.36;100.00
20622;BME280;10470;42.670;23.354;2023-03-03T06:08:56;94732.00;;;5.41;100.00
20622;BME280;10470;42.670;23.354;2023-03-03T06:11:22;94742.00;;;5.20;100.00
20622;BME280;10470;42.670;23.354;2023-03-03T06:13:47;94735.78;;;5.23;100.00
20622;BME280;10470;42.670;23.354;2023-03-03T06:16:13;94739.81;;;5.35;100.00
20622;BME280;10470;42.670;23.354;2023-03-03T06:18:38;94747.84;;;5.39;100.00
20622;BME280;10470;42.670;23.354;2023-03-03T06:21:04;94740.09;;;4.97;100.00
20622;BME280;10470;42.670;23.354;2023-03-03T06:23:30;94716.25;;;5.16;100.00
20622;BME280;10470;42.670;23.354;2023-03-03T06:25:55;94754.56;;;5.31;100.00
20622;BME280;10470;42.670;23.354;2023-03-03T06:28:21;94750.56;;;5.39;100.00
20622;BME280;10470;42.670;23.354;2023-03-03T06:30:46;94751.19;;;5.46;100.00
20622;BME280;10470;42.670;23.354;2023-03-03T06:33:12;94747.59;;;5.53;100.00
20622;BME280;10470;42.670;23.354;2023-03-03T06:35:37;94747.50;;;5.37;100.00
20622;BME280;10470;42.670;23.354;2023-03-03T06:38:03;94750.44;;;5.46;100.00
20622;BME280;10470;42.670;23.354;2023-03-03T06:40:29;94757.50;;;5.60;100.00
20622;BME280;10470;42.670;23.354;2023-03-03T06:42:54;94755.56;;;5.60;100.00
20622;BME280;10470;42.670;23.354;2023-03-03T06:45:20;94758.69;;;5.59;100.00
20622;BME280;10470;42.670;23.354;2023-03-03T06:47:45;94757.84;;;5.62;100.00
20622;BME280;10470;42.670;23.354;2023-03-03T06:50:11;94756.88;;;5.52;100.00
20622;BME280;10470;42.670;23.354;2023-03-03T06:52:37;94760.75;;;5.51;100.00
20622;BME280;10470;42.670;23.354;2023-03-03T06:55:11;94760.19;;;5.60;100.00
20622;BME280;10470;42.670;23.354;2023-03-03T06:57:37;94763.53;;;5.67;100.00
20622;BME280;10470;42.670;23.354;2023-03-03T07:00:19;94761.09;;;5.73;100.00
20622;BME280;10470;42.670;23.354;2023-03-03T07:02:57;94769.63;;;5.72;100.00
20622;BME280;10470;42.670;23.354;2023-03-03T07:05:25;94765.63;;;5.80;100.00
20622;BME280;10470;42.670;23.354;2023-03-03T07:07:53;94769.38;;;5.66;100.00
20622;BME280;10470;42.670;23.354;2023-03-03T07:12:47;94772.25;;;5.75;100.00
20622;BME280;10470;42.670;23.354;2023-03-03T07:15:26;94763.13;;;5.89;100.00
20622;BME280;10470;42.670;23.354;2023-03-03T07:17:55;94773.66;;;6.03;100.00
20622;BME280;10470;42.670;23.354;2023-03-03T07:22:54;94768.25;;;6.03;100.00
20622;BME280;10470;42.670;23.354;2023-03-03T07:25:26;94769.72;;;6.08;100.00
20622;BME280;10470;42.670;23.354;2023-03-03T07:27:58;94771.03;;;6.00;100.00
20622;BME280;10470;42.670;23.354;2023-03-03T07:30:28;94768.97;;;6.07;100.00
20622;BME280;10470;42.670;23.354;2023-03-03T07:32:57;94767.22;;;5.97;100.00
20622;BME280;10470;42.670;23.354;2023-03-03T07:35:43;94774.25;;;5.95;100.00
20622;BME280;10470;42.670;23.354;2023-03-03T07:41:01;94764.78;;;6.23;100.00
20622;BME280;10470;42.670;23.354;2023-03-03T07:46:21;94766.44;;;6.17;100.00
20622;BME280;10470;42.670;23.354;2023-03-03T07:48:47;94767.63;;;6.16;100.00
20622;BME280;10470;42.670;23.354;2023-03-03T07:53:47;94770.84;;;6.27;100.00
20622;BME280;10470;42.670;23.354;2023-03-03T07:56:34;94768.34;;;6.36;100.00
20622;BME280;10470;42.670;23.354;2023-03-03T07:59:02;94768.09;;;6.47;100.00
20622;BME280;10470;42.670;23.354;2023-03-03T08:01:42;94768.59;;;6.42;100.00
20622;BME280;10470;42.670;23.354;2023-03-03T08:04:16;94763.09;;;6.29;100.00
20622;BME280;10470;42.670;23.354;2023-03-03T08:06:48;94757.94;;;6.34;100.00
20622;BME280;10470;42.670;23.354;2023-03-03T08:14:36;94769.56;;;6.15;100.00
20622;BME280;10470;42.670;23.354;2023-03-03T08:17:26;94765.59;;;6.20;100.00
20622;BME280;10470;42.670;23.354;2023-03-03T08:19:55;94761.63;;;6.24;100.00
20622;BME280;10470;42.670;23.354;2023-03-03T08:24:51;94755.09;;;6.42;100.00
20622;BME280;10470;42.670;23.354;2023-03-03T08:27:17;94751.28;;;6.39;100.00
20622;BME280;10470;42.670;23.354;2023-03-03T08:29:42;94753.41;;;6.11;100.00
20622;BME280;10470;42.670;23.354;2023-03-03T08:32:07;94748.13;;;6.41;100.00
20622;BME280;10470;42.670;23.354;2023-03-03T08:34:33;94755.09;;;6.42;100.00
20622;BME280;10470;42.670;23.354;2023-03-03T08:36:58;94760.00;;;6.47;100.00
20622;BME280;10470;42.670;23.354;2023-03-03T08:39:24;94749.41;;;6.36;100.00
20622;BME280;10470;42.670;23.354;2023-03-03T08:41:49;94754.97;;;6.29;100.00
20622;BME280;10470;42.670;23.354;2023-03-03T08:44:15;94755.59;;;6.37;100.00
20622;BME280;10470;42.670;23.354;2023-03-03T08:46:40;94759.56;;;6.48;100.00
20622;BME280;10470;42.670;23.354;2023-03-03T08:49:06;94757.19;;;6.34;100.00
20622;BME280;10470;42.670;23.354;2023-03-03T08:51:31;94755.50;;;6.40;100.00
20622;BME280;10470;42.670;23.354;2023-03-03T08:53:59;94757.34;;;6.43;100.00
20622;BME280;10470;42.670;23.354;2023-03-03T08:56:24;94751.31;;;6.72;100.00
20622;BME280;10470;42.670;23.354;2023-03-03T08:58:50;94759.56;;;6.48;100.00
20622;BME280;10470;42.670;23.354;2023-03-03T09:01:15;94749.94;;;6.64;100.00
20622;BME280;10470;42.670;23.354;2023-03-03T09:03:42;94754.19;;;6.65;100.00
20622;BME280;10470;42.670;23.354;2023-03-03T09:06:08;94753.91;;;6.59;100.00
20622;BME280;10470;42.670;23.354;2023-03-03T09:08:33;94759.56;;;6.48;100.00
20622;BME280;10470;42.670;23.354;2023-03-03T09:10:59;94759.94;;;6.83;100.00
20622;BME280;10470;42.670;23.354;2023-03-03T09:13:25;94757.97;;;6.84;100.00
20622;BME280;10470;42.670;23.354;2023-03-03T09:15:53;94752.56;;;6.84;100.00
20622;BME280;10470;42.670;23.354;2023-03-03T09:18:34;94740.97;;;6.83;100.00
20622;BME280;10470;42.670;23.354;2023-03-03T09:21:00;94753.84;;;6.95;100.00
20622;BME280;10470;42.670;23.354;2023-03-03T09:23:37;94758.16;;;6.93;100.00
20622;BME280;10470;42.670;23.354;2023-03-03T09:26:26;94749.25;;;7.09;100.00
20622;BME280;10470;42.670;23.354;2023-03-03T09:31:38;94757.91;;;7.04;100.00
20622;BME280;10470;42.670;23.354;2023-03-03T09:34:27;94759.56;;;6.97;100.00
20622;BME280;10470;42.670;23.354;2023-03-03T09:37:17;94764.16;;;7.17;100.00
20622;BME280;10470;42.670;23.354;2023-03-03T09:39:45;94650.38;;;6.55;100.00
20622;BME280;10470;42.670;23.354;2023-03-03T09:50:21;94767.22;;;7.48;100.00
20622;BME280;10470;42.670;23.354;2023-03-03T10:12:26;94756.69;;;7.79;100.00
20622;BME280;10470;42.670;23.354;2023-03-03T10:15:14;94748.94;;;7.36;100.00
20622;BME280;10470;42.670;23.354;2023-03-03T10:21:06;94762.91;;;7.51;100.00
20622;BME280;10470;42.670;23.354;2023-03-03T10:26:25;94749.97;;;7.42;100.00
20622;BME280;10470;42.670;23.354;2023-03-03T10:36:54;94731.06;;;7.68;100.00
20622;BME280;10470;42.670;23.354;2023-03-03T10:39:49;94741.19;;;7.80;100.00
20622;BME280;10470;42.670;23.354;2023-03-03T11:01:25;94724.38;;;6.81;100.00
20622;BME280;10470;42.670;23.354;2023-03-03T11:12:19;94709.91;;;6.88;100.00
20622;BME280;10470;42.670;23.354;2023-03-03T11:25:48;94699.34;;;7.22;100.00
20622;BME280;10470;42.670;23.354;2023-03-03T11:33:36;94688.84;;;6.63;100.00
20622;BME280;10470;42.670;23.354;2023-03-03T11:38:57;94701.34;;;6.89;100.00
20622;BME280;10470;42.670;23.354;2023-03-03T11:44:58;94679.44;;;7.29;100.00
20622;BME280;10470;42.670;23.354;2023-03-03T11:47:36;94684.94;;;7.26;100.00
20622;BME280;10470;42.670;23.354;2023-03-03T11:53:08;94671.25;;;7.16;100.00
20622;BME280;10470;42.670;23.354;2023-03-03T11:55:41;94677.09;;;7.15;100.00
20622;BME280;10470;42.670;23.354;2023-03-03T11:58:21;94682.22;;;6.96;100.00
20622;BME280;10470;42.670;23.354;2023-03-03T12:04:03;94678.34;;;7.27;100.00
20622;BME280;10470;42.670;23.354;2023-03-03T12:09:32;94676.00;;;7.12;100.00
20622;BME280;10470;42.670;23.354;2023-03-03T12:12:22;94680.16;;;7.17;100.00
20622;BME280;10470;42.670;23.354;2023-03-03T12:15:22;94666.13;;;7.35;100.00
20622;BME280;10470;42.670;23.354;2023-03-03T12:18:01;94669.66;;;7.19;100.00
20622;BME280;10470;42.670;23.354;2023-03-03T12:25:47;94670.53;;;7.29;100.00
20622;BME280;10470;42.670;23.354;2023-03-03T12:28:31;94673.25;;;7.58;100.00
20622;BME280;10470;42.670;23.354;2023-03-03T12:33:57;94681.91;;;7.53;100.00
20622;BME280;10470;42.670;23.354;2023-03-03T12:47:02;94682.09;;;7.46;100.00
20622;BME280;10470;42.670;23.354;2023-03-03T12:55:45;94675.66;;;7.27;100.00
20622;BME280;10470;42.670;23.354;2023-03-03T13:09:01;94672.38;;;7.19;100.00
20622;BME280;10470;42.670;23.354;2023-03-03T13:19:19;94659.91;;;7.21;100.00
20622;BME280;10470;42.670;23.354;2023-03-03T13:21:51;94659.94;;;7.34;100.00
20622;BME280;10470;42.670;23.354;2023-03-03T13:27:13;94648.56;;;7.94;100.00
20622;BME280;10470;42.670;23.354;2023-03-03T13:29:43;94649.81;;;7.64;100.00
20622;BME280;10470;42.670;23.354;2023-03-03T13:32:21;94659.69;;;7.29;100.00
20622;BME280;10470;42.670;23.354;2023-03-03T13:37:54;94663.16;;;7.58;100.00
20622;BME280;10470;42.670;23.354;2023-03-03T13:40:39;94662.97;;;7.36;100.00
20622;BME280;10470;42.670;23.354;2023-03-03T13:59:08;94654.28;;;7.29;100.00
20622;BME280;10470;42.670;23.354;2023-03-03T14:04:58;94655.06;;;7.29;100.00
20622;BME280;10470;42.670;23.354;2023-03-03T14:07:33;94664.13;;;6.77;100.00
20622;BME280;10470;42.670;23.354;2023-03-03T14:10:14;94664.19;;;7.06;100.00
20622;BME280;10470;42.670;23.354;2023-03-03T14:13:04;94662.41;;;7.29;100.00
20622;BME280;10470;42.670;23.354;2023-03-03T14:15:33;94653.75;;;7.34;100.00
20622;BME280;10470;42.670;23.354;2023-03-03T14:20:48;94645.63;;;7.34;100.00
20622;BME280;10470;42.670;23.354;2023-03-03T14:23:24;94647.56;;;7.33;100.00
20622;BME280;10470;42.670;23.354;2023-03-03T14:28:19;94643.59;;;7.38;100.00
20622;BME280;10470;42.670;23.354;2023-03-03T14:30:45;94645.63;;;7.34;100.00
20622;BME280;10470;42.670;23.354;2023-03-03T14:35:49;94648.66;;;7.36;100.00
20622;BME280;10470;42.670;23.354;2023-03-03T14:38:20;94641.53;;;7.55;100.00
20622;BME280;10470;42.670;23.354;2023-03-03T14:40:48;94637.31;;;7.54;100.00
20622;BME280;10470;42.670;23.354;2023-03-03T14:49:01;94642.53;;;7.48;100.00
20622;BME280;10470;42.670;23.354;2023-03-03T14:51:32;94641.16;;;7.27;100.00
20622;BME280;10470;42.670;23.354;2023-03-03T14:53:58;94641.44;;;7.46;100.00
20622;BME280;10470;42.670;23.354;2023-03-03T14:56:29;94635.59;;;7.18;100.00
20622;BME280;10470;42.670;23.354;2023-03-03T14:59:20;94637.94;;;7.32;100.00
20622;BME280;10470;42.670;23.354;2023-03-03T15:01:56;94633.94;;;7.50;100.00
20622;BME280;10470;42.670;23.354;2023-03-03T15:04:25;94637.84;;;7.49;100.00
20622;BME280;10470;42.670;23.354;2023-03-03T15:06:53;94636.47;;;7.57;100.00
20622;BME280;10470;42.670;23.354;2023-03-03T15:11:53;94634.91;;;7.43;100.00
20622;BME280;10470;42.670;23.354;2023-03-03T15:14:26;94642.31;;;7.55;100.00
20622;BME280;10470;42.670;23.354;2023-03-03T15:16:56;94640.59;;;7.61;100.00
20622;BME280;10470;42.670;23.354;2023-03-03T15:19:35;94636.66;;;7.50;100.00
20622;BME280;10470;42.670;23.354;2023-03-03T15:27:34;94636.22;;;7.51;100.00
20622;BME280;10470;42.670;23.354;2023-03-03T15:30:29;94636.78;;;7.59;100.00
20622;BME280;10470;42.670;23.354;2023-03-03T15:35:50;94622.84;;;7.31;100.00
20622;BME280;10470;42.670;23.354;2023-03-03T15:41:05;94636.88;;;7.42;100.00
20622;BME280;10470;42.670;23.354;2023-03-03T15:56:55;94634.06;;;7.46;100.00
20622;BME280;10470;42.670;23.354;2023-03-03T15:59:52;94649.97;;;7.44;100.00
20622;BME280;10470;42.670;23.354;2023-03-03T16:02:30;94654.41;;;7.38;100.00
20622;BME280;10470;42.670;23.354;2023-03-03T16:05:12;94651.66;;;7.25;100.00
20622;BME280;10470;42.670;23.354;2023-03-03T16:08:13;94658.66;;;7.39;100.00
20622;BME280;10470;42.670;23.354;2023-03-03T16:11:33;94656.19;;;7.44;100.00
20622;BME280;10470;42.670;23.354;2023-03-03T16:17:22;94668.75;;;7.51;100.00
20622;BME280;10470;42.670;23.354;2023-03-03T16:20:22;94676.34;;;7.43;100.00
20622;BME280;10470;42.670;23.354;2023-03-03T16:25:58;94681.63;;;7.34;100.00
20622;BME280;10470;42.670;23.354;2023-03-03T16:28:38;94671.44;;;7.38;100.00
20622;BME280;10470;42.670;23.354;2023-03-03T16:31:18;94670.50;;;7.45;100.00
20622;BME280;10470;42.670;23.354;2023-03-03T16:42:20;94687.13;;;7.31;100.00
20622;BME280;10470;42.670;23.354;2023-03-03T16:55:37;94706.19;;;7.27;100.00
20622;BME280;10470;42.670;23.354;2023-03-03T17:39:50;94732.72;;;7.19;100.00
20622;BME280;10470;42.670;23.354;2023-03-03T17:42:36;94733.44;;;7.36;100.00
20622;BME280;10470;42.670;23.354;2023-03-03T17:53:54;94750.41;;;7.24;100.00
20622;BME280;10470;42.670;23.354;2023-03-03T17:59:49;94756.50;;;7.28;100.00
20622;BME280;10470;42.670;23.354;2023-03-03T18:10:39;94765.78;;;6.98;100.00
20622;BME280;10470;42.670;23.354;2023-03-03T18:13:17;94763.91;;;6.95;100.00
20622;BME280;10470;42.670;23.354;2023-03-03T18:16:21;94766.88;;;7.00;100.00
20622;BME280;10470;42.670;23.354;2023-03-03T18:22:11;94771.50;;;7.16;100.00
20622;BME280;10470;42.670;23.354;2023-03-03T18:24:53;94764.66;;;7.12;100.00
20622;BME280;10470;42.670;23.354;2023-03-03T18:49:09;94786.09;;;7.06;100.00
20622;BME280;10470;42.670;23.354;2023-03-03T18:56:44;94803.78;;;7.11;100.00
20622;BME280;10470;42.670;23.354;2023-03-03T19:04:41;94797.34;;;7.05;100.00
20622;BME280;10470;42.670;23.354;2023-03-03T19:12:59;94807.75;;;7.22;100.00
20622;BME280;10470;42.670;23.354;2023-03-03T19:20:41;94819.19;;;7.14;100.00
20622;BME280;10470;42.670;23.354;2023-03-03T19:23:19;94820.09;;;7.07;100.00
20622;BME280;10470;42.670;23.354;2023-03-03T19:27:10;94818.06;;;6.95;100.00
20622;BME280;10470;42.670;23.354;2023-03-03T19:38:22;94821.56;;;7.12;100.00